UAE777 KDAY-KORD
Flight info
| Callsign | UAE777 |
|---|---|
| Flight time | N/A |
| Altitude | 30000 |
| Route | FWA WATSN4 |
| Aircraft | A333/H-SDE3GHIJ2J3J5M1RVWXY/LB2D1 |
Departure
| Time | 2026-05-05 22:05 |
|---|---|
| Airport | James M. Cox Dayton International Airport (KDAY) |
Arrival
| Time | N/A |
|---|---|
| Airport | Chicago O'Hare International Airport (KORD) |
| Time | Latitude | Longitude | Altitude | Speed | Heading |
|---|---|---|---|---|---|
| 2026-05-05 21:56 | 39.90014 | -84.22846 | 1003 ft | 0 kts | 236° |
| 2026-05-05 21:57 | 39.90015 | -84.22844 | 1003 ft | 0 kts | 236° |
| 2026-05-05 22:01 | 39.90036 | -84.22805 | 1003 ft | 18 kts | 236° |
| 2026-05-05 22:01 | 39.90047 | -84.22758 | 1003 ft | 3 kts | 289° |
| 2026-05-05 22:01 | 39.90020 | -84.22659 | 1003 ft | 4 kts | 298° |
| 2026-05-05 22:02 | 39.90033 | -84.22680 | 1003 ft | 7 kts | 313° |
| 2026-05-05 22:02 | 39.90092 | -84.22681 | 1003 ft | 12 kts | 44° |
| 2026-05-05 22:02 | 39.90210 | -84.22671 | 1003 ft | 28 kts | 311° |
| 2026-05-05 22:02 | 39.90189 | -84.23038 | 1003 ft | 61 kts | 233° |
| 2026-05-05 22:03 | 39.89880 | -84.23629 | 1002 ft | 93 kts | 236° |
| 2026-05-05 22:03 | 39.89780 | -84.23817 | 1003 ft | 98 kts | 235° |
| 2026-05-05 22:03 | 39.89446 | -84.24447 | 1006 ft | 40 kts | 240° |
| 2026-05-05 22:03 | 39.89518 | -84.24551 | 1005 ft | 15 kts | 22° |
| 2026-05-05 22:04 | 39.89599 | -84.24438 | 1004 ft | 25 kts | 55° |
| 2026-05-05 22:04 | 39.89849 | -84.23968 | 1003 ft | 104 kts | 56° |
| 2026-05-05 22:04 | 39.90403 | -84.22931 | 1031 ft | 171 kts | 57° |
| 2026-05-05 22:04 | 39.91149 | -84.21560 | 1391 ft | 205 kts | 55° |
| 2026-05-05 22:05 | 39.92068 | -84.19908 | 1959 ft | 247 kts | 51° |
| 2026-05-05 22:05 | 39.93473 | -84.18522 | 2836 ft | 258 kts | 20° |
| 2026-05-05 22:05 | 39.95182 | -84.18195 | 3740 ft | 247 kts | 349° |
| 2026-05-05 22:05 | 39.96744 | -84.18975 | 4491 ft | 244 kts | 322° |
| 2026-05-05 22:06 | 39.97970 | -84.20503 | 5259 ft | 245 kts | 314° |
| 2026-05-05 22:06 | 39.99225 | -84.21995 | 5851 ft | 255 kts | 320° |
| 2026-05-05 22:06 | 40.00681 | -84.23433 | 6307 ft | 270 kts | 321° |
| 2026-05-05 22:06 | 40.02198 | -84.24966 | 6743 ft | 286 kts | 321° |
| 2026-05-05 22:07 | 40.03829 | -84.26550 | 7235 ft | 301 kts | 324° |
| 2026-05-05 22:07 | 40.05622 | -84.28078 | 7690 ft | 316 kts | 326° |
| 2026-05-05 22:07 | 40.07396 | -84.29866 | 8319 ft | 322 kts | 320° |
| 2026-05-05 22:07 | 40.09149 | -84.31640 | 9092 ft | 324 kts | 322° |
| 2026-05-05 22:08 | 40.10031 | -84.32505 | 9389 ft | 329 kts | 323° |
| 2026-05-05 22:08 | 40.11897 | -84.34315 | 9953 ft | 338 kts | 323° |
| 2026-05-05 22:08 | 40.13784 | -84.36140 | 10787 ft | 338 kts | 323° |
| 2026-05-05 22:08 | 40.15657 | -84.37953 | 11520 ft | 341 kts | 323° |
| 2026-05-05 22:09 | 40.17057 | -84.39309 | 12041 ft | 343 kts | 323° |
| 2026-05-05 22:09 | 40.18142 | -84.40359 | 12423 ft | 345 kts | 323° |
| 2026-05-05 22:09 | 40.21070 | -84.43198 | 13476 ft | 347 kts | 323° |
| 2026-05-05 22:09 | 40.32969 | -84.54757 | 15370 ft | 360 kts | 324° |
| 2026-05-05 22:10 | 40.45084 | -84.66584 | 17308 ft | 370 kts | 323° |
| 2026-05-05 22:10 | 40.57647 | -84.78909 | 19155 ft | 380 kts | 323° |
| 2026-05-05 22:10 | 40.70522 | -84.91596 | 20986 ft | 388 kts | 324° |
| 2026-05-05 22:10 | 40.83645 | -85.04591 | 21566 ft | 400 kts | 324° |
| 2026-05-05 22:11 | 40.96973 | -85.17860 | 21907 ft | 412 kts | 324° |
| 2026-05-05 22:11 | 40.99694 | -85.21118 | 22198 ft | 418 kts | 312° |
| 2026-05-05 22:11 | 41.01981 | -85.24614 | 22741 ft | 418 kts | 313° |
| 2026-05-05 22:11 | 41.10635 | -85.37239 | 24094 ft | 421 kts | 314° |
| 2026-05-05 22:12 | 41.17599 | -85.47508 | 24372 ft | 430 kts | 309° |
| 2026-05-05 22:12 | 41.19532 | -85.52334 | 24896 ft | 434 kts | 291° |
| 2026-05-05 22:12 | 41.20466 | -85.57702 | 25458 ft | 436 kts | 285° |
| 2026-05-05 22:12 | 41.21574 | -85.63019 | 25904 ft | 437 kts | 289° |
| 2026-05-05 22:13 | 41.22823 | -85.68415 | 26349 ft | 440 kts | 289° |
| 2026-05-05 22:13 | 41.24092 | -85.73770 | 26812 ft | 442 kts | 289° |
| 2026-05-05 22:13 | 41.25357 | -85.79072 | 27281 ft | 444 kts | 289° |
| 2026-05-05 22:13 | 41.26644 | -85.84486 | 27700 ft | 447 kts | 289° |
| 2026-05-05 22:14 | 41.27466 | -85.90091 | 28053 ft | 452 kts | 278° |
| 2026-05-05 22:14 | 41.28026 | -85.95722 | 28476 ft | 454 kts | 280° |
| 2026-05-05 22:14 | 41.28638 | -86.01451 | 28891 ft | 456 kts | 280° |
| 2026-05-05 22:14 | 41.29260 | -86.07204 | 29316 ft | 457 kts | 280° |
| 2026-05-05 22:15 | 41.29880 | -86.12956 | 29605 ft | 460 kts | 280° |
| 2026-05-05 22:15 | 41.30499 | -86.18711 | 29721 ft | 462 kts | 280° |
| 2026-05-05 22:15 | 41.31126 | -86.24571 | 29660 ft | 460 kts | 280° |
| 2026-05-05 22:16 | 41.32353 | -86.36124 | 29702 ft | 460 kts | 280° |
| 2026-05-05 22:16 | 41.33546 | -86.47475 | 29698 ft | 459 kts | 280° |
| 2026-05-05 22:17 | 41.34784 | -86.55615 | 29677 ft | 455 kts | 294° |
| 2026-05-05 22:17 | 41.37574 | -86.62936 | 29708 ft | 456 kts | 298° |
| 2026-05-05 22:18 | 41.41153 | -86.69577 | 29697 ft | 452 kts | 320° |
| 2026-05-05 22:18 | 41.43763 | -86.71741 | 29582 ft | 445 kts | 332° |
| 2026-05-05 22:18 | 41.46490 | -86.73511 | 28652 ft | 447 kts | 333° |
| 2026-05-05 22:18 | 41.49196 | -86.75279 | 27694 ft | 447 kts | 333° |
| 2026-05-05 22:19 | 41.51922 | -86.77054 | 27008 ft | 441 kts | 334° |
| 2026-05-05 22:19 | 41.54782 | -86.78231 | 26211 ft | 440 kts | 349° |
| 2026-05-05 22:19 | 41.57776 | -86.78560 | 25469 ft | 437 kts | 354° |
| 2026-05-05 22:19 | 41.60698 | -86.78846 | 24786 ft | 432 kts | 354° |
| 2026-05-05 22:20 | 41.63618 | -86.79132 | 24101 ft | 428 kts | 354° |
| 2026-05-05 22:20 | 41.66519 | -86.79436 | 23406 ft | 425 kts | 353° |
| 2026-05-05 22:20 | 41.69385 | -86.79808 | 22717 ft | 421 kts | 353° |
| 2026-05-05 22:20 | 41.72215 | -86.80171 | 21959 ft | 413 kts | 353° |
| 2026-05-05 22:21 | 41.74993 | -86.80529 | 20834 ft | 411 kts | 354° |
| 2026-05-05 22:21 | 41.77742 | -86.80898 | 19799 ft | 407 kts | 352° |
| 2026-05-05 22:21 | 41.80450 | -86.81523 | 18842 ft | 400 kts | 350° |
| 2026-05-05 22:21 | 41.83128 | -86.82144 | 17854 ft | 395 kts | 350° |
| 2026-05-05 22:22 | 41.85731 | -86.82896 | 16931 ft | 389 kts | 341° |
| 2026-05-05 22:22 | 41.88029 | -86.84558 | 15978 ft | 386 kts | 323° |
| 2026-05-05 22:22 | 41.90031 | -86.86792 | 15077 ft | 381 kts | 321° |
| 2026-05-05 22:22 | 41.91997 | -86.88988 | 14150 ft | 376 kts | 321° |
| 2026-05-05 22:23 | 41.93955 | -86.91177 | 13222 ft | 371 kts | 321° |
| 2026-05-05 22:23 | 41.95884 | -86.93336 | 12289 ft | 369 kts | 321° |
| 2026-05-05 22:23 | 41.97727 | -86.95635 | 12077 ft | 367 kts | 310° |
| 2026-05-05 22:23 | 41.98930 | -86.98576 | 12229 ft | 373 kts | 291° |
| 2026-05-05 22:24 | 41.99383 | -87.01905 | 12070 ft | 375 kts | 271° |
| 2026-05-05 22:24 | 41.99264 | -87.05370 | 12146 ft | 375 kts | 268° |
| 2026-05-05 22:24 | 41.99129 | -87.08794 | 12119 ft | 376 kts | 268° |
| 2026-05-05 22:24 | 41.98986 | -87.12214 | 12119 ft | 376 kts | 268° |
| 2026-05-05 22:25 | 41.98840 | -87.15620 | 11947 ft | 363 kts | 268° |
| 2026-05-05 22:25 | 41.98699 | -87.18903 | 10688 ft | 367 kts | 268° |
| 2026-05-05 22:25 | 41.98555 | -87.22214 | 9479 ft | 365 kts | 267° |
| 2026-05-05 22:25 | 41.98408 | -87.25548 | 9082 ft | 357 kts | 267° |
| 2026-05-05 22:26 | 41.98265 | -87.28784 | 9222 ft | 359 kts | 267° |
| 2026-05-05 22:26 | 41.98117 | -87.32095 | 9086 ft | 358 kts | 267° |
| 2026-05-05 22:26 | 41.97971 | -87.35334 | 9121 ft | 358 kts | 267° |
| 2026-05-05 22:26 | 41.97826 | -87.38559 | 9111 ft | 339 kts | 267° |
| 2026-05-05 22:27 | 41.97689 | -87.41552 | 9099 ft | 308 kts | 267° |
| 2026-05-05 22:27 | 41.97567 | -87.44249 | 9052 ft | 282 kts | 267° |
| 2026-05-05 22:27 | 41.97452 | -87.46719 | 8985 ft | 260 kts | 267° |
| 2026-05-05 22:27 | 41.97348 | -87.48999 | 8888 ft | 239 kts | 267° |
| 2026-05-05 22:28 | 41.97248 | -87.51134 | 8690 ft | 233 kts | 266° |
| 2026-05-05 22:28 | 41.96764 | -87.53149 | 8413 ft | 233 kts | 234° |
| 2026-05-05 22:28 | 41.95573 | -87.54486 | 8165 ft | 231 kts | 201° |
| 2026-05-05 22:28 | 41.94043 | -87.54796 | 7940 ft | 227 kts | 178° |
| 2026-05-05 22:29 | 41.92485 | -87.54675 | 7713 ft | 226 kts | 176° |
| 2026-05-05 22:29 | 41.90973 | -87.54282 | 7453 ft | 226 kts | 153° |
| 2026-05-05 22:29 | 41.89852 | -87.52916 | 7196 ft | 225 kts | 120° |
| 2026-05-05 22:29 | 41.89477 | -87.50971 | 6951 ft | 225 kts | 90° |
| 2026-05-05 22:30 | 41.89580 | -87.48922 | 6736 ft | 224 kts | 86° |
| 2026-05-05 22:30 | 41.89704 | -87.46886 | 6497 ft | 225 kts | 86° |
| 2026-05-05 22:30 | 41.89829 | -87.44804 | 6239 ft | 226 kts | 86° |
| 2026-05-05 22:30 | 41.90122 | -87.42814 | 6081 ft | 225 kts | 62° |
| 2026-05-05 22:31 | 41.91167 | -87.41311 | 6172 ft | 233 kts | 28° |
| 2026-05-05 22:31 | 41.92699 | -87.40763 | 6134 ft | 235 kts | 356° |
| 2026-05-05 22:31 | 41.94197 | -87.41393 | 6133 ft | 233 kts | 324° |
| 2026-05-05 22:31 | 41.95222 | -87.43016 | 6138 ft | 231 kts | 294° |
| 2026-05-05 22:32 | 41.95879 | -87.44923 | 6130 ft | 232 kts | 294° |
| 2026-05-05 22:32 | 41.96397 | -87.46919 | 6097 ft | 231 kts | 274° |
| 2026-05-05 22:32 | 41.96426 | -87.49018 | 6147 ft | 232 kts | 270° |
| 2026-05-05 22:32 | 41.96450 | -87.51150 | 6115 ft | 231 kts | 270° |
| 2026-05-05 22:33 | 41.96468 | -87.53285 | 5950 ft | 234 kts | 270° |
| 2026-05-05 22:33 | 41.96482 | -87.55402 | 5647 ft | 230 kts | 270° |
| 2026-05-05 22:33 | 41.96493 | -87.57486 | 5359 ft | 229 kts | 269° |
| 2026-05-05 22:33 | 41.96502 | -87.59605 | 5066 ft | 231 kts | 269° |
| 2026-05-05 22:34 | 41.96510 | -87.61741 | 4766 ft | 234 kts | 269° |
| 2026-05-05 22:34 | 41.96518 | -87.63876 | 4455 ft | 236 kts | 269° |
| 2026-05-05 22:34 | 41.96522 | -87.66065 | 4131 ft | 239 kts | 268° |
| 2026-05-05 22:34 | 41.96518 | -87.68253 | 3779 ft | 238 kts | 268° |
| 2026-05-05 22:35 | 41.96522 | -87.70398 | 3448 ft | 226 kts | 268° |
| 2026-05-05 22:35 | 41.96530 | -87.72416 | 3140 ft | 215 kts | 268° |
| 2026-05-05 22:35 | 41.96537 | -87.74345 | 2857 ft | 211 kts | 268° |
| 2026-05-05 22:35 | 41.96540 | -87.76206 | 2564 ft | 195 kts | 268° |
| 2026-05-05 22:36 | 41.96547 | -87.77885 | 2328 ft | 172 kts | 267° |
| 2026-05-05 22:36 | 41.96548 | -87.79411 | 2171 ft | 157 kts | 267° |
| 2026-05-05 22:36 | 41.96552 | -87.80799 | 1934 ft | 148 kts | 267° |
| 2026-05-05 22:36 | 41.96553 | -87.82147 | 1721 ft | 146 kts | 267° |
| 2026-05-05 22:37 | 41.96555 | -87.83472 | 1524 ft | 146 kts | 268° |
| 2026-05-05 22:37 | 41.96557 | -87.84820 | 1325 ft | 145 kts | 268° |
| 2026-05-05 22:37 | 41.96560 | -87.86139 | 1131 ft | 145 kts | 269° |
| 2026-05-05 22:37 | 41.96562 | -87.87476 | 938 ft | 145 kts | 269° |
| 2026-05-05 22:38 | 41.96564 | -87.88807 | 746 ft | 146 kts | 270° |
| 2026-05-05 22:38 | 41.96569 | -87.90151 | 734 ft | 151 kts | 270° |
| 2026-05-05 22:38 | 41.96567 | -87.91610 | 1308 ft | 169 kts | 268° |